ANA154 RJOB-RJFO
Flight info
| Callsign | ANA154 |
|---|---|
| Flight time | 0h 32m |
| Altitude | 14000 |
| Route | RJOB/07 WASYU2 WASYU Y28 MARCO Y45 YANAI BAIEN RJFO/19 |
| Aircraft | B738/M-V/N |
Departure
| Time | 2026-04-25 21:58 |
|---|---|
| Airport | Okayama Momotaro Airport (RJOB) |
Arrival
| Time | 2026-04-25 22:31 |
|---|---|
| Airport | Oita Airport (RJFO) |
| Time | Latitude | Longitude | Altitude | Speed | Heading |
|---|---|---|---|---|---|
| 2026-04-25 21:39 | 34.75905 | 133.85263 | 808 ft | 0 kts | 329° |
| 2026-04-25 21:49 | 34.75903 | 133.85265 | 808 ft | 2 kts | 329° |
| 2026-04-25 21:49 | 34.75890 | 133.85274 | 808 ft | 2 kts | 328° |
| 2026-04-25 21:49 | 34.75877 | 133.85283 | 807 ft | 2 kts | 329° |
| 2026-04-25 21:50 | 34.75864 | 133.85294 | 807 ft | 2 kts | 329° |
| 2026-04-25 21:50 | 34.75851 | 133.85303 | 806 ft | 2 kts | 329° |
| 2026-04-25 21:50 | 34.75838 | 133.85312 | 806 ft | 2 kts | 329° |
| 2026-04-25 21:50 | 34.75830 | 133.85318 | 805 ft | 2 kts | 329° |
| 2026-04-25 21:51 | 34.75816 | 133.85329 | 804 ft | 2 kts | 313° |
| 2026-04-25 21:51 | 34.75807 | 133.85345 | 803 ft | 2 kts | 290° |
| 2026-04-25 21:51 | 34.75804 | 133.85365 | 802 ft | 2 kts | 266° |
| 2026-04-25 21:51 | 34.75808 | 133.85384 | 802 ft | 1 kts | 244° |
| 2026-04-25 21:52 | 34.75811 | 133.85391 | 802 ft | 1 kts | 237° |
| 2026-04-25 21:52 | 34.75812 | 133.85393 | 802 ft | 0 kts | 239° |
| 2026-04-25 21:54 | 34.75811 | 133.85393 | 802 ft | 1 kts | 239° |
| 2026-04-25 21:54 | 34.75763 | 133.85294 | 801 ft | 22 kts | 239° |
| 2026-04-25 21:54 | 34.75680 | 133.85127 | 800 ft | 26 kts | 239° |
| 2026-04-25 21:55 | 34.75597 | 133.84955 | 800 ft | 25 kts | 240° |
| 2026-04-25 21:55 | 34.75503 | 133.84766 | 800 ft | 33 kts | 239° |
| 2026-04-25 21:55 | 34.75401 | 133.84564 | 804 ft | 23 kts | 227° |
| 2026-04-25 21:55 | 34.75273 | 133.84569 | 804 ft | 19 kts | 154° |
| 2026-04-25 21:56 | 34.75168 | 133.84503 | 805 ft | 21 kts | 232° |
| 2026-04-25 21:56 | 34.75116 | 133.84409 | 805 ft | 25 kts | 239° |
| 2026-04-25 21:56 | 34.75011 | 133.84186 | 799 ft | 13 kts | 281° |
| 2026-04-25 21:56 | 34.75040 | 133.84201 | 800 ft | 6 kts | 76° |
| 2026-04-25 21:57 | 34.75055 | 133.84242 | 802 ft | 0 kts | 63° |
| 2026-04-25 21:57 | 34.75064 | 133.84262 | 803 ft | 19 kts | 62° |
| 2026-04-25 21:57 | 34.75239 | 133.84621 | 803 ft | 85 kts | 59° |
| 2026-04-25 21:58 | 34.75617 | 133.85390 | 791 ft | 141 kts | 59° |
| 2026-04-25 21:58 | 34.76127 | 133.86452 | 1095 ft | 160 kts | 61° |
| 2026-04-25 21:58 | 34.76614 | 133.87436 | 1967 ft | 144 kts | 60° |
| 2026-04-25 21:58 | 34.76940 | 133.88457 | 2577 ft | 142 kts | 95° |
| 2026-04-25 21:59 | 34.76576 | 133.89410 | 2903 ft | 145 kts | 136° |
| 2026-04-25 21:59 | 34.75750 | 133.90091 | 3273 ft | 156 kts | 154° |
| 2026-04-25 21:59 | 34.74731 | 133.90315 | 3632 ft | 170 kts | 182° |
| 2026-04-25 22:00 | 34.72813 | 133.88730 | 4275 ft | 207 kts | 229° |
| 2026-04-25 22:00 | 34.71987 | 133.87405 | 4634 ft | 220 kts | 230° |
| 2026-04-25 22:00 | 34.71090 | 133.86003 | 5013 ft | 232 kts | 229° |
| 2026-04-25 22:00 | 34.70130 | 133.84547 | 5494 ft | 240 kts | 229° |
| 2026-04-25 22:01 | 34.69094 | 133.82994 | 6171 ft | 241 kts | 229° |
| 2026-04-25 22:01 | 34.68051 | 133.81427 | 6818 ft | 243 kts | 229° |
| 2026-04-25 22:01 | 34.67010 | 133.79863 | 7419 ft | 247 kts | 230° |
| 2026-04-25 22:01 | 34.66346 | 133.78863 | 7809 ft | 249 kts | 230° |
| 2026-04-25 22:02 | 34.64996 | 133.76836 | 8646 ft | 252 kts | 231° |
| 2026-04-25 22:02 | 34.63977 | 133.75305 | 9237 ft | 255 kts | 231° |
| 2026-04-25 22:02 | 34.62888 | 133.73671 | 9932 ft | 255 kts | 231° |
| 2026-04-25 22:02 | 34.61781 | 133.72011 | 10561 ft | 259 kts | 231° |
| 2026-04-25 22:03 | 34.60682 | 133.70361 | 11244 ft | 260 kts | 231° |
| 2026-04-25 22:03 | 34.59560 | 133.68680 | 12000 ft | 259 kts | 231° |
| 2026-04-25 22:03 | 34.58522 | 133.67123 | 12671 ft | 260 kts | 231° |
| 2026-04-25 22:03 | 34.57471 | 133.65550 | 13311 ft | 261 kts | 231° |
| 2026-04-25 22:04 | 34.56387 | 133.63927 | 13791 ft | 266 kts | 231° |
| 2026-04-25 22:04 | 34.55210 | 133.62148 | 13964 ft | 281 kts | 233° |
| 2026-04-25 22:04 | 34.54223 | 133.60217 | 13952 ft | 287 kts | 243° |
| 2026-04-25 22:04 | 34.53498 | 133.58145 | 14084 ft | 288 kts | 248° |
| 2026-04-25 22:05 | 34.52814 | 133.55890 | 14105 ft | 290 kts | 249° |
| 2026-04-25 22:05 | 34.52129 | 133.53624 | 14098 ft | 290 kts | 249° |
| 2026-04-25 22:05 | 34.51427 | 133.51382 | 14095 ft | 288 kts | 248° |
| 2026-04-25 22:05 | 34.50709 | 133.49159 | 14096 ft | 288 kts | 248° |
| 2026-04-25 22:06 | 34.49976 | 133.46925 | 14099 ft | 290 kts | 247° |
| 2026-04-25 22:06 | 34.49251 | 133.44725 | 14093 ft | 288 kts | 247° |
| 2026-04-25 22:06 | 34.48566 | 133.42651 | 14094 ft | 293 kts | 247° |
| 2026-04-25 22:06 | 34.47837 | 133.40451 | 14101 ft | 322 kts | 247° |
| 2026-04-25 22:07 | 34.46995 | 133.37907 | 14100 ft | 340 kts | 248° |
| 2026-04-25 22:07 | 34.46466 | 133.36273 | 14096 ft | 345 kts | 248° |
| 2026-04-25 22:07 | 34.45409 | 133.32906 | 14095 ft | 350 kts | 248° |
| 2026-04-25 22:07 | 34.44627 | 133.30377 | 14095 ft | 348 kts | 248° |
| 2026-04-25 22:08 | 34.43824 | 133.27779 | 14100 ft | 348 kts | 248° |
| 2026-04-25 22:08 | 34.42954 | 133.24980 | 14098 ft | 347 kts | 248° |
| 2026-04-25 22:08 | 34.42135 | 133.22353 | 14095 ft | 350 kts | 248° |
| 2026-04-25 22:08 | 34.41352 | 133.19853 | 14092 ft | 348 kts | 248° |
| 2026-04-25 22:09 | 34.40568 | 133.17354 | 14098 ft | 347 kts | 248° |
| 2026-04-25 22:09 | 34.39781 | 133.14867 | 14094 ft | 348 kts | 248° |
| 2026-04-25 22:09 | 34.38994 | 133.12395 | 14098 ft | 347 kts | 248° |
| 2026-04-25 22:09 | 34.38198 | 133.09898 | 14094 ft | 346 kts | 248° |
| 2026-04-25 22:10 | 34.37412 | 133.07436 | 14094 ft | 348 kts | 248° |
| 2026-04-25 22:10 | 34.36630 | 133.04987 | 14093 ft | 347 kts | 248° |
| 2026-04-25 22:10 | 34.35833 | 133.02490 | 14092 ft | 347 kts | 248° |
| 2026-04-25 22:10 | 34.35046 | 133.00030 | 14090 ft | 349 kts | 248° |
| 2026-04-25 22:11 | 34.34256 | 132.97556 | 14091 ft | 347 kts | 247° |
| 2026-04-25 22:11 | 34.33453 | 132.95046 | 14088 ft | 349 kts | 248° |
| 2026-04-25 22:11 | 34.32659 | 132.92566 | 14085 ft | 349 kts | 248° |
| 2026-04-25 22:11 | 34.31873 | 132.90114 | 14085 ft | 349 kts | 247° |
| 2026-04-25 22:12 | 34.31077 | 132.87625 | 14085 ft | 349 kts | 248° |
| 2026-04-25 22:12 | 34.30289 | 132.85143 | 14089 ft | 348 kts | 248° |
| 2026-04-25 22:12 | 34.29503 | 132.82646 | 14084 ft | 347 kts | 248° |
| 2026-04-25 22:12 | 34.29253 | 132.81851 | 14083 ft | 348 kts | 248° |
| 2026-04-25 22:13 | 34.27937 | 132.77667 | 14085 ft | 349 kts | 248° |
| 2026-04-25 22:13 | 34.27163 | 132.75209 | 14082 ft | 349 kts | 248° |
| 2026-04-25 22:13 | 34.26371 | 132.72696 | 14072 ft | 349 kts | 248° |
| 2026-04-25 22:13 | 34.25557 | 132.70108 | 14072 ft | 346 kts | 248° |
| 2026-04-25 22:14 | 34.24768 | 132.67609 | 14073 ft | 348 kts | 248° |
| 2026-04-25 22:14 | 34.23981 | 132.65120 | 14081 ft | 349 kts | 248° |
| 2026-04-25 22:14 | 34.23184 | 132.62608 | 14082 ft | 347 kts | 248° |
| 2026-04-25 22:14 | 34.22413 | 132.60181 | 14077 ft | 346 kts | 248° |
| 2026-04-25 22:15 | 34.21632 | 132.57726 | 14078 ft | 349 kts | 248° |
| 2026-04-25 22:15 | 34.20843 | 132.55250 | 14075 ft | 348 kts | 248° |
| 2026-04-25 22:15 | 34.20060 | 132.52794 | 14071 ft | 349 kts | 248° |
| 2026-04-25 22:16 | 34.18503 | 132.47893 | 14081 ft | 348 kts | 248° |
| 2026-04-25 22:16 | 34.17724 | 132.45436 | 14087 ft | 349 kts | 248° |
| 2026-04-25 22:16 | 34.16936 | 132.42952 | 14081 ft | 348 kts | 248° |
| 2026-04-25 22:16 | 34.16156 | 132.40489 | 14082 ft | 341 kts | 248° |
| 2026-04-25 22:17 | 34.15400 | 132.38103 | 14076 ft | 329 kts | 248° |
| 2026-04-25 22:17 | 34.14628 | 132.35673 | 14071 ft | 329 kts | 248° |
| 2026-04-25 22:17 | 34.13880 | 132.33325 | 13935 ft | 337 kts | 247° |
| 2026-04-25 22:17 | 34.13084 | 132.30829 | 13485 ft | 339 kts | 247° |
| 2026-04-25 22:18 | 34.12297 | 132.28358 | 13079 ft | 331 kts | 247° |
| 2026-04-25 22:18 | 34.11496 | 132.25833 | 12622 ft | 327 kts | 247° |
| 2026-04-25 22:18 | 34.10758 | 132.23502 | 12163 ft | 326 kts | 247° |
| 2026-04-25 22:18 | 34.10023 | 132.21191 | 11723 ft | 324 kts | 247° |
| 2026-04-25 22:19 | 34.09292 | 132.18896 | 11247 ft | 323 kts | 246° |
| 2026-04-25 22:19 | 34.08773 | 132.17406 | 10944 ft | 321 kts | 243° |
| 2026-04-25 22:19 | 34.07046 | 132.14510 | 10537 ft | 307 kts | 218° |
| 2026-04-25 22:19 | 34.05378 | 132.13310 | 10432 ft | 293 kts | 204° |
| 2026-04-25 22:20 | 34.03605 | 132.12399 | 10336 ft | 280 kts | 202° |
| 2026-04-25 22:20 | 34.01841 | 132.11519 | 10243 ft | 268 kts | 202° |
| 2026-04-25 22:20 | 34.00256 | 132.10718 | 10094 ft | 260 kts | 202° |
| 2026-04-25 22:20 | 33.98732 | 132.09933 | 9799 ft | 259 kts | 202° |
| 2026-04-25 22:21 | 33.97210 | 132.09142 | 9466 ft | 259 kts | 202° |
| 2026-04-25 22:21 | 33.95568 | 132.08287 | 9144 ft | 258 kts | 202° |
| 2026-04-25 22:21 | 33.93920 | 132.07426 | 8835 ft | 255 kts | 201° |
| 2026-04-25 22:21 | 33.92360 | 132.06615 | 8511 ft | 255 kts | 201° |
| 2026-04-25 22:22 | 33.90766 | 132.05786 | 8183 ft | 254 kts | 201° |
| 2026-04-25 22:22 | 33.89138 | 132.04942 | 7846 ft | 253 kts | 201° |
| 2026-04-25 22:22 | 33.87528 | 132.04109 | 7514 ft | 252 kts | 200° |
| 2026-04-25 22:22 | 33.85925 | 132.03281 | 7034 ft | 254 kts | 200° |
| 2026-04-25 22:23 | 33.84321 | 132.02452 | 6744 ft | 246 kts | 200° |
| 2026-04-25 22:23 | 33.82775 | 132.01653 | 6457 ft | 240 kts | 200° |
| 2026-04-25 22:23 | 33.81250 | 132.00864 | 6187 ft | 249 kts | 200° |
| 2026-04-25 22:23 | 33.79646 | 132.00035 | 5872 ft | 256 kts | 200° |
| 2026-04-25 22:24 | 33.78001 | 131.99181 | 5527 ft | 257 kts | 201° |
| 2026-04-25 22:24 | 33.76500 | 131.98161 | 5213 ft | 258 kts | 211° |
| 2026-04-25 22:24 | 33.75161 | 131.96964 | 4924 ft | 258 kts | 214° |
| 2026-04-25 22:24 | 33.73767 | 131.95622 | 4577 ft | 256 kts | 215° |
| 2026-04-25 22:25 | 33.72388 | 131.94304 | 4258 ft | 250 kts | 214° |
| 2026-04-25 22:25 | 33.71050 | 131.93056 | 3945 ft | 246 kts | 214° |
| 2026-04-25 22:25 | 33.69671 | 131.91791 | 3579 ft | 254 kts | 213° |
| 2026-04-25 22:25 | 33.68294 | 131.90532 | 3324 ft | 248 kts | 213° |
| 2026-04-25 22:26 | 33.66981 | 131.89325 | 3275 ft | 232 kts | 213° |
| 2026-04-25 22:26 | 33.65749 | 131.88194 | 3222 ft | 218 kts | 212° |
| 2026-04-25 22:26 | 33.64621 | 131.87167 | 3188 ft | 224 kts | 211° |
| 2026-04-25 22:26 | 33.63373 | 131.86037 | 3122 ft | 219 kts | 212° |
| 2026-04-25 22:27 | 33.62241 | 131.84955 | 3054 ft | 207 kts | 217° |
| 2026-04-25 22:27 | 33.61315 | 131.83858 | 2883 ft | 203 kts | 223° |
| 2026-04-25 22:27 | 33.60399 | 131.82658 | 2604 ft | 204 kts | 224° |
| 2026-04-25 22:27 | 33.59446 | 131.81409 | 2283 ft | 205 kts | 223° |
| 2026-04-25 22:28 | 33.58473 | 131.80168 | 1985 ft | 206 kts | 223° |
| 2026-04-25 22:28 | 33.57542 | 131.78984 | 1894 ft | 198 kts | 224° |
| 2026-04-25 22:28 | 33.56612 | 131.77802 | 1743 ft | 195 kts | 224° |
| 2026-04-25 22:28 | 33.55709 | 131.76645 | 1549 ft | 196 kts | 224° |
| 2026-04-25 22:29 | 33.54836 | 131.75525 | 1317 ft | 185 kts | 225° |
| 2026-04-25 22:29 | 33.53977 | 131.74495 | 1085 ft | 178 kts | 217° |
| 2026-04-25 22:29 | 33.52988 | 131.73865 | 889 ft | 168 kts | 192° |
| 2026-04-25 22:30 | 33.50887 | 131.73770 | 394 ft | 156 kts | 179° |
| 2026-04-25 22:30 | 33.49852 | 131.73737 | 172 ft | 152 kts | 181° |
| 2026-04-25 22:30 | 33.48830 | 131.73718 | 25 ft | 151 kts | 180° |
| 2026-04-25 22:30 | 33.48169 | 131.73715 | 22 ft | 131 kts | 180° |
| 2026-04-25 22:31 | 33.47324 | 131.73712 | 17 ft | 45 kts | 182° |
| 2026-04-25 22:31 | 33.47057 | 131.73671 | 16 ft | 32 kts | 224° |
| 2026-04-25 22:31 | 33.47098 | 131.73506 | 20 ft | 26 kts | 352° |
| 2026-04-25 22:31 | 33.47260 | 131.73505 | 23 ft | 22 kts | 1° |
| 2026-04-25 22:32 | 33.47402 | 131.73508 | 24 ft | 21 kts | 1° |
| 2026-04-25 22:32 | 33.47527 | 131.73509 | 25 ft | 14 kts | 1° |
| 2026-04-25 22:32 | 33.47577 | 131.73480 | 26 ft | 7 kts | 273° |
| 2026-04-25 22:32 | 33.47578 | 131.73422 | 28 ft | 8 kts | 271° |
| 2026-04-25 22:33 | 33.47579 | 131.73372 | 29 ft | 4 kts | 270° |
| 2026-04-25 22:33 | 33.47579 | 131.73352 | 30 ft | 1 kts | 269° |
| 2026-04-25 22:33 | 33.47579 | 131.73349 | 30 ft | 0 kts | 269° |